Delta B712 at Atlanta on Jun 29th 2017, runway excursion on landing

Last Update: July 3, 2017 / 16:12:23 GMT/Zulu time

Bookmark this article
Incident Facts

Date of incident
Jun 29, 2017

Classification
Incident

Flight number
DL-2599

Aircraft Registration
N910AT

Aircraft Type
Boeing 717-200

ICAO Type Designator
B712

Airport ICAO Code
KATL

A Delta Airlines Boeing 717-200, registration N910AT performing flight DL-2599 from Nashville,TN to Atlanta,GA (USA), was cleared to land on runway 09R with tower issuing a windshear alert. The aircraft continued for a landing. Upon turning off the runway the crew reported they just barely made it in, they'd recommend to not to land. Subsequently arrivals elected to go around as result.

The FAA reported the aircraft struck runway lights on landing causing minor damage.



Metars:
KATL 292240Z 19006KT 7SM -RA FEW020 SCT060 BKN100 OVC150 22/21 A3012 RMK AO2 TSB05E40 LTG DSNT NE TS MOVD NE CB DSNT NE P0014 T02170206 $=
KATL 292205Z 21011KT 3SM TSRA BR FEW020CB BKN050 BKN100 OVC150 22/22 A3011 RMK AO2 LTG DSNT E TSB01E02B05 OCNL LTGIC NE TS VC NE MOV N CB VC N-E MOV NE P0010 T02170217 $=
KATL 292152Z 18013G28KT 1 1/2SM R09R/1400VP6000FT +RA BR SCT020CB BKN040 BKN100 OVC150 22/21 A3012 RMK AO2 PK WND 18034/2141 RAB2054 SLP192 VIS LWR N-E CB NE-SE-S MOV NE P0074 T02170211 $=
KATL 292143Z 18026G34KT 1/2SM R09R/1600V5500FT +RA FG BKN030CB BKN055 OVC110 22/21 A3012 RMK AO2 PK WND 18034/2141 LTG DSNT SE RAB2054 CB NE-OHD-S MOV NE P0027 T02170211 $=
KATL 292135Z 17021G30KT 1 1/2SM R09R/4500VP6000FT +RA BR SCT030CB BKN055 BKN110 OVC150 24/22 A3012 RMK AO2 PK WND 18030/2134 SFC VIS 2 LTG DSNT SE RAB2054 PRESRR VIS LWR SE-S CB OHD-SE MOV NE P0005 T02440222=
KATL 292052Z 16008KT 10SM FEW030CB SCT065 BKN120 OVC150 28/21 A3009 RMK AO2 SLP181 CB DSNT SE-SW & VC W TCU DSNT N-NE & DSNT NW-N SHRA DSNT SE-SW & VC W T02780206 56013=
KATL 291952Z 16006KT 10SM FEW030TCU SCT065 SCT150 BKN250 28/21 A3010 RMK AO2 SLP184 CB DSNT SE-SW TCU NE & SE-SW & W SHRA DSNT SE-SW T02830211=
KATL 291852Z 14007KT 10SM FEW030 SCT150 BKN250 28/21 A3011 RMK AO2 SLP186 CB DSNT N-NE-E TCU DSNT S T02780211=
KATL 291852Z 14007KT 10SM FEW030 SCT150 BKN250 28/21 A3011 RMK AO2 SLP186 CB DSNT N-NE-E TCU DSNT S T02780211=
KATL 291752Z 18011KT 10SM FEW023TCU SCT060 BKN100 BKN140 27/21 A3013 RMK AO2 LTG DSNT N SLP194 CB DSNT N-NE-E & DSNT NW TCU NE-SE & W T02670206 10278 20222 58013=
KATL 291652Z 17009KT 10SM FEW023 SCT030 SCT100 BKN150 28/21 A3016 RMK AO2 SLP201 CB DSNT NE & E MDT CU ALQDS SHRA DSNT NE & E T02780211=
Aircraft Registration Data
Registration mark
N910AT
Country of Registration
United States
Date of Registration
LgA qmhAlmfc e Subscribe to unlock
Manufacturer
BOEING
Aircraft Model / Type
717-200
Number of Seats
ICAO Aircraft Type
B712
Year of Manufacture
Serial Number
Aircraft Address / Mode S Code (HEX)
Engine Count
Engine Manufacturer
Engine Model
Alibkcqfpdkbb Subscribe to unlock
Engine Type
Pounds of Thrust
Main Owner
IknlAn q nphgdkcknnihAbnAgndlldfehd jlckplnfkqkpiAbbde niqkbdqpdgj ljmbgg Ahq hp b heb deAkdmkmbmcjjdgbchqphiq jAhqgd Subscribe to unlock
Incident Facts

Date of incident
Jun 29, 2017

Classification
Incident

Flight number
DL-2599

Aircraft Registration
N910AT

Aircraft Type
Boeing 717-200

ICAO Type Designator
B712

Airport ICAO Code
KATL

This article is published under license from Avherald.com. © of text by Avherald.com.
Article source

You can read 2 more free articles without a subscription.

Subscribe now and continue reading without any limits!

Are you a subscriber? Login
Subscribe

Read unlimited articles and receive our daily update briefing. Gain better insights into what is happening in commercial aviation safety.

Send tip

Support AeroInside by sending a small tip amount.

Related articles

Newest articles

Subscribe today

Are you researching aviation incidents? Get access to AeroInside Insights, unlimited read access and receive the daily newsletter.

Pick your plan and subscribe

Partner

Blockaviation logo

A new way to document and demonstrate airworthiness compliance and aircraft value. Find out more.

ELITE Logo

ELITE Simulation Solutions is a leading global provider of Flight Simulation Training Devices, IFR training software as well as flight controls and related services. Find out more.

Blue Altitude Logo

Your regulation partner, specialists in aviation safety and compliance; providing training, auditing, and consultancy services. Find out more.

AeroInside Blog
Popular aircraft
Airbus A320
Boeing 737-800
Boeing 737-800 MAX
Popular airlines
American Airlines
United
Delta
Air Canada
Lufthansa
British Airways